Manhattan, NY

15:58 EDT le 30 août 2015 (GMT -0400)
Murray Hill | | Change Station
CLOSE
Current Station
Stations météorologiques personnelles
Location: New York, NY
Altitude: 98 ft
Stations météo à proximité

Alt. 98 ft 40.75 °N, 73.98 °W | Updated 19 seconds ago

Mostly Cloudy
Nuageux
83.1 ° F
Paraît 87 ° F
N
7.0
Vent Variable Vent de SSE
Gusts 11.0 mph

Aujourd'hui
Haut(e) -- | Bas -- ° F
--% Risque de précip.
Hier
Haut(e) -- | Bas -- ° F
Precip. -- pouce
6:20 AM 7:31 PM
Pleine lune, 98% visible
Pression 30.02 pouce
Visibilité 10.0 Miles terrestres
Nuages Nuageux 10000 ft
indice de chaleur 87 ° F
Point de rosée 69 ° F
Humidité 63%
Précipitations 0.00 pouce
Profondeur de la couche neigeuse Non disponible.
UV 3 sur 12
Pollen 10.30 sur 12
Qualité de l'air Non disponible.
Flu Activity Non disponible.
METAR KNYC 301951Z AUTO VRB05KT 10SM BKN100 30/18 A3005 RMK AO2 SLP166 T03000183 $
Pression 30.02 pouce
Visibilité 10.0 Miles terrestres
Nuages Nuageux 10000 ft
indice de chaleur 87 ° F
Point de rosée 69 ° F
Humidité 63%
Précipitations 0.00 pouce
Profondeur de la couche neigeuse Non disponible.
UV 3 sur 12
Pollen 10.30 sur 12
Qualité de l'air Non disponible.
Flu Activity Non disponible.
METAR KNYC 301951Z AUTO VRB05KT 10SM BKN100 30/18 A3005 RMK AO2 SLP166 T03000183 $

10-Day Weather Forecast

×

Almanac

Astronomie

Aug. 30, 2015 Lever Coucher
Temps réel
Crépuscule civil
Crépuscule nautique
Crépuscule astronomique
Lune
Durée de lumière visible
Longueur du jour
Tomorrow will be .
, % of the Moon is Illuminated

Extrêmes aujourd'hui

State Highs State Lows

Community

WunderPhotos

Upload Photos

1,851,041 Photos téléchargées !

WunderBlogs® & News

Nearby

Qualité de l'air

  Qualité de l'air Indice de la qualité de l'air Polluant
Not available.

Épaisseur de neige

Station Depth Altitude

Activité sismique

Ville Distance Mag. Time & Date
Minimum magnitude displayed is 2.5.

Températures des eaux côtières

Lieu Température

Stations

Stations météo à proximité

Emplacement de la station Température Refroidissement éolien Point de rosée Humidité Vent Precip. Alt. Mise à jour Type